logo dgac
Miércoles 22 de Mayo del 2019
Buscar por aerodromo o helipuerto
Ingrese nombre de aeródromo, localidad o designador OACI:
METAR del 22-05-2019 a las 10:00 UTC
METAR SCIC 221000Z AUTO VRB01KT 9999 NCD 02/00 Q1020
Nan: AUTO
Viento: dirección variable, velocidad 1 nudos
Visibilidad: 10 km o más
Nan: NCD
Temperatura: 2 °C
Rocío: 0 °C
Humedad_relativa: 87%
Presión: 1020 hPa
METAR del 22-05-2019 a las 09:00 UTC
METAR SCIC 220900Z AUTO 06007KT 9999 NCD 03/01 Q1020
Nan: AUTO
Viento: dirección 060 grados, velocidad 7 nudos
Visibilidad: 10 km o más
Nan: NCD
Temperatura: 3 °C
Rocío: 1 °C
Humedad_relativa: 87%
Presión: 1020 hPa
METAR del 22-05-2019 a las 08:00 UTC
METAR SCIC 220800Z AUTO VRB02KT 9999 NCD 02/02 Q1020
Nan: AUTO
Viento: dirección variable, velocidad 2 nudos
Visibilidad: 10 km o más
Nan: NCD
Temperatura: 2 °C
Rocío: 2 °C
Humedad_relativa: 100%
Presión: 1020 hPa
SPECI del 22-05-2019 a las 07:42 UTC
SPECI SCIC 220742Z AUTO 03002KT 9999 NCD 01/01 Q1021
Nan: AUTO
Viento: dirección 030 grados, velocidad 2 nudos
Visibilidad: 10 km o más
Nan: NCD
Temperatura: 1 °C
Rocío: 1 °C
Humedad_relativa: 100%
Presión: 1021 hPa
SPECI del 22-05-2019 a las 07:42 UTC
SPECI SCIC 220742Z AUTO 03002KT 9999 NCD 01/01 Q1021
Nan: AUTO
Viento: dirección 030 grados, velocidad 2 nudos
Visibilidad: 10 km o más
Nan: NCD
Temperatura: 1 °C
Rocío: 1 °C
Humedad_relativa: 100%
Presión: 1021 hPa
SPECI del 22-05-2019 a las 07:03 UTC
SPECI SCIC 220703Z AUTO VRB01KT 1200 R/////// BR NCD 01/01 Q1021
Nan: AUTO
Viento: dirección variable, velocidad 1 nudos
Visibilidad: 1200 metros
Nan: R///////
Neblina
Nan: NCD
Temperatura: 1 °C
Rocío: 1 °C
Humedad_relativa: 100%
Presión: 1021 hPa
METAR del 22-05-2019 a las 07:00 UTC
METAR SCIC 220700Z AUTO 10001KT 3700 BR NCD 02/02 Q1021
Nan: AUTO
Viento: dirección 100 grados, velocidad 1 nudos
Visibilidad: 3700 metros
Neblina
Nan: NCD
Temperatura: 2 °C
Rocío: 2 °C
Humedad_relativa: 100%
Presión: 1021 hPa
SPECI del 22-05-2019 a las 06:35 UTC
SPECI SCIC 220635Z AUTO VRB02KT 4200 NCD 02/02 Q1021
Nan: AUTO
Viento: dirección variable, velocidad 2 nudos
Visibilidad: 4200 metros
Nan: NCD
Temperatura: 2 °C
Rocío: 2 °C
Humedad_relativa: 100%
Presión: 1021 hPa
SPECI del 22-05-2019 a las 06:30 UTC
SPECI SCIC 220630Z AUTO VRB02KT 7000 NCD 02/02 Q1021
Nan: AUTO
Viento: dirección variable, velocidad 2 nudos
Visibilidad: 7000 metros
Nan: NCD
Temperatura: 2 °C
Rocío: 2 °C
Humedad_relativa: 100%
Presión: 1021 hPa
SPECI del 22-05-2019 a las 06:18 UTC
SPECI SCIC 220618Z AUTO VRB02KT 4300 BR NCD 02/02 Q1021
Nan: AUTO
Viento: dirección variable, velocidad 2 nudos
Visibilidad: 4300 metros
Neblina
Nan: NCD
Temperatura: 2 °C
Rocío: 2 °C
Humedad_relativa: 100%
Presión: 1021 hPa